sensor_id;sensor_type;location;lat;lon;timestamp;pressure;altitude;pressure_sealevel;temperature;humidity
7614;BME280;3848;42.016;23.098;2022-10-03T00:04:16;97232.72;;;11.92;100.00
7614;BME280;3848;42.016;23.098;2022-10-03T00:06:55;97225.97;;;11.89;100.00
7614;BME280;3848;42.016;23.098;2022-10-03T00:09:38;97229.44;;;11.80;100.00
7614;BME280;3848;42.016;23.098;2022-10-03T00:12:13;97210.00;;;11.72;100.00
7614;BME280;3848;42.016;23.098;2022-10-03T00:14:51;97208.19;;;11.83;100.00
7614;BME280;3848;42.016;23.098;2022-10-03T00:17:27;97220.13;;;11.79;100.00
7614;BME280;3848;42.016;23.098;2022-10-03T00:20:04;97219.31;;;11.74;100.00
7614;BME280;3848;42.016;23.098;2022-10-03T00:22:41;97221.97;;;11.64;100.00
7614;BME280;3848;42.016;23.098;2022-10-03T00:25:21;97199.97;;;11.58;100.00
7614;BME280;3848;42.016;23.098;2022-10-03T00:27:54;97192.41;;;11.53;100.00
7614;BME280;3848;42.016;23.098;2022-10-03T00:30:45;97202.47;;;11.63;100.00
7614;BME280;3848;42.016;23.098;2022-10-03T00:33:19;97200.75;;;11.63;100.00
7614;BME280;3848;42.016;23.098;2022-10-03T00:36:01;97186.56;;;11.45;100.00
7614;BME280;3848;42.016;23.098;2022-10-03T00:38:47;97200.97;;;11.46;100.00
7614;BME280;3848;42.016;23.098;2022-10-03T00:41:29;97191.63;;;11.47;100.00
7614;BME280;3848;42.016;23.098;2022-10-03T00:47:32;97188.19;;;11.49;100.00
7614;BME280;3848;42.016;23.098;2022-10-03T00:50:30;97183.97;;;11.50;100.00
7614;BME280;3848;42.016;23.098;2022-10-03T00:53:14;97181.47;;;11.45;100.00
7614;BME280;3848;42.016;23.098;2022-10-03T00:58:51;97178.09;;;11.42;100.00
7614;BME280;3848;42.016;23.098;2022-10-03T01:01:30;97173.09;;;11.34;100.00
7614;BME280;3848;42.016;23.098;2022-10-03T01:04:25;97161.31;;;11.27;100.00
7614;BME280;3848;42.016;23.098;2022-10-03T01:07:04;97152.84;;;11.22;100.00
7614;BME280;3848;42.016;23.098;2022-10-03T01:09:48;97152.06;;;11.18;100.00
7614;BME280;3848;42.016;23.098;2022-10-03T01:15:22;97153.06;;;11.04;100.00
7614;BME280;3848;42.016;23.098;2022-10-03T01:18:05;97153.03;;;11.07;100.00
7614;BME280;3848;42.016;23.098;2022-10-03T01:20:44;97137.75;;;11.10;100.00
7614;BME280;3848;42.016;23.098;2022-10-03T01:23:46;97138.59;;;11.10;100.00
7614;BME280;3848;42.016;23.098;2022-10-03T01:26:42;97129.31;;;11.06;100.00
7614;BME280;3848;42.016;23.098;2022-10-03T01:29:21;97117.50;;;10.99;100.00
7614;BME280;3848;42.016;23.098;2022-10-03T01:32:11;97119.22;;;10.97;100.00
7614;BME280;3848;42.016;23.098;2022-10-03T01:34:45;97115.03;;;10.91;100.00
7614;BME280;3848;42.016;23.098;2022-10-03T01:37:20;97119.34;;;10.82;100.00
7614;BME280;3848;42.016;23.098;2022-10-03T01:39:52;97112.59;;;10.79;100.00
7614;BME280;3848;42.016;23.098;2022-10-03T01:42:35;97089.88;;;10.64;100.00
7614;BME280;3848;42.016;23.098;2022-10-03T01:45:16;97098.34;;;10.64;100.00
7614;BME280;3848;42.016;23.098;2022-10-03T01:47:54;97111.91;;;10.65;100.00
7614;BME280;3848;42.016;23.098;2022-10-03T01:50:29;97113.63;;;10.58;100.00
7614;BME280;3848;42.016;23.098;2022-10-03T01:53:01;97104.41;;;10.50;100.00
7614;BME280;3848;42.016;23.098;2022-10-03T01:55:38;97103.56;;;10.49;100.00
7614;BME280;3848;42.016;23.098;2022-10-03T01:58:10;97098.47;;;10.51;100.00
7614;BME280;3848;42.016;23.098;2022-10-03T02:00:44;97104.31;;;10.59;100.00
7614;BME280;3848;42.016;23.098;2022-10-03T02:03:19;97097.50;;;10.64;100.00
7614;BME280;3848;42.016;23.098;2022-10-03T02:05:52;97098.31;;;10.69;100.00
7614;BME280;3848;42.016;23.098;2022-10-03T02:08:29;97094.94;;;10.67;100.00
7614;BME280;3848;42.016;23.098;2022-10-03T02:11:03;97099.22;;;10.63;100.00
7614;BME280;3848;42.016;23.098;2022-10-03T02:13:41;97117.03;;;10.56;100.00
7614;BME280;3848;42.016;23.098;2022-10-03T02:16:19;97107.78;;;10.50;100.00
7614;BME280;3848;42.016;23.098;2022-10-03T02:18:53;97112.06;;;10.44;100.00
7614;BME280;3848;42.016;23.098;2022-10-03T02:21:23;97110.34;;;10.49;100.00
7614;BME280;3848;42.016;23.098;2022-10-03T02:24:07;97094.28;;;10.45;100.00
7614;BME280;3848;42.016;23.098;2022-10-03T02:27:06;97107.69;;;10.59;100.00
7614;BME280;3848;42.016;23.098;2022-10-03T02:42:37;97090.59;;;10.78;100.00
7614;BME280;3848;42.016;23.098;2022-10-03T02:48:36;97100.72;;;10.81;100.00
7614;BME280;3848;42.016;23.098;2022-10-03T02:51:25;97101.56;;;10.82;100.00
7614;BME280;3848;42.016;23.098;2022-10-03T02:57:41;97095.72;;;10.74;100.00
7614;BME280;3848;42.016;23.098;2022-10-03T03:00:18;97112.59;;;10.79;100.00
7614;BME280;3848;42.016;23.098;2022-10-03T03:09:34;97107.66;;;10.61;100.00
7614;BME280;3848;42.016;23.098;2022-10-03T03:15:41;97112.06;;;10.41;100.00
7614;BME280;3848;42.016;23.098;2022-10-03T03:18:19;97112.13;;;10.33;100.00
7614;BME280;3848;42.016;23.098;2022-10-03T03:21:09;97110.47;;;10.32;100.00
7614;BME280;3848;42.016;23.098;2022-10-03T03:23:59;97108.78;;;10.29;100.00
7614;BME280;3848;42.016;23.098;2022-10-03T03:26:43;97107.97;;;10.27;100.00
7614;BME280;3848;42.016;23.098;2022-10-03T03:29:22;97097.81;;;10.18;100.00
7614;BME280;3848;42.016;23.098;2022-10-03T03:32:00;97111.41;;;10.11;100.00
7614;BME280;3848;42.016;23.098;2022-10-03T03:34:33;97115.75;;;10.00;100.00
7614;BME280;3848;42.016;23.098;2022-10-03T03:37:08;97114.91;;;9.92;100.00
7614;BME280;3848;42.016;23.098;2022-10-03T03:39:56;97123.44;;;9.85;100.00
7614;BME280;3848;42.016;23.098;2022-10-03T03:42:43;97110.84;;;9.66;100.00
7614;BME280;3848;42.016;23.098;2022-10-03T03:45:24;97097.31;;;9.66;100.00
7614;BME280;3848;42.016;23.098;2022-10-03T03:48:26;97109.09;;;9.71;100.00
7614;BME280;3848;42.016;23.098;2022-10-03T03:51:12;97104.88;;;9.70;100.00
7614;BME280;3848;42.016;23.098;2022-10-03T03:57:11;97092.16;;;9.76;100.00
7614;BME280;3848;42.016;23.098;2022-10-03T04:00:03;97091.34;;;9.71;100.00
7614;BME280;3848;42.016;23.098;2022-10-03T04:02:56;97079.47;;;9.75;100.00
7614;BME280;3848;42.016;23.098;2022-10-03T04:05:33;97089.59;;;9.84;100.00
7614;BME280;3848;42.016;23.098;2022-10-03T04:08:16;97082.88;;;9.75;100.00
7614;BME280;3848;42.016;23.098;2022-10-03T04:11:01;97090.38;;;9.94;100.00
7614;BME280;3848;42.016;23.098;2022-10-03T04:13:49;97090.34;;;10.03;100.00
7614;BME280;3848;42.016;23.098;2022-10-03T04:16:40;97079.31;;;10.04;100.00
7614;BME280;3848;42.016;23.098;2022-10-03T04:19:31;97080.97;;;10.09;100.00
7614;BME280;3848;42.016;23.098;2022-10-03T04:22:18;97080.94;;;10.14;100.00
7614;BME280;3848;42.016;23.098;2022-10-03T04:25:24;97070.75;;;10.22;100.00
7614;BME280;3848;42.016;23.098;2022-10-03T04:28:07;97074.16;;;10.22;100.00
7614;BME280;3848;42.016;23.098;2022-10-03T04:30:48;97095.28;;;10.24;100.00
7614;BME280;3848;42.016;23.098;2022-10-03T04:33:31;97085.13;;;10.18;100.00
7614;BME280;3848;42.016;23.098;2022-10-03T04:36:17;97080.91;;;10.17;100.00
7614;BME280;3848;42.016;23.098;2022-10-03T04:38:55;97088.53;;;10.14;100.00
7614;BME280;3848;42.016;23.098;2022-10-03T04:41:30;97080.09;;;10.12;100.00
7614;BME280;3848;42.016;23.098;2022-10-03T04:44:09;97089.38;;;10.16;100.00
7614;BME280;3848;42.016;23.098;2022-10-03T04:46:42;97083.47;;;10.14;100.00
7614;BME280;3848;42.016;23.098;2022-10-03T04:49:19;97088.53;;;10.14;100.00
7614;BME280;3848;42.016;23.098;2022-10-03T04:51:54;97091.16;;;10.06;100.00
7614;BME280;3848;42.016;23.098;2022-10-03T04:54:29;97073.38;;;10.05;100.00
7614;BME280;3848;42.016;23.098;2022-10-03T04:57:06;97080.09;;;10.21;100.00
7614;BME280;3848;42.016;23.098;2022-10-03T04:59:41;97086.84;;;10.22;100.00
7614;BME280;3848;42.016;23.098;2022-10-03T05:02:24;97090.97;;;10.32;100.00
7614;BME280;3848;42.016;23.098;2022-10-03T05:05:20;97104.47;;;10.37;100.00
7614;BME280;3848;42.016;23.098;2022-10-03T05:07:57;97101.09;;;10.38;100.00
7614;BME280;3848;42.016;23.098;2022-10-03T05:10:41;97095.06;;;10.50;100.00
7614;BME280;3848;42.016;23.098;2022-10-03T05:13:14;97094.16;;;10.56;100.00
7614;BME280;3848;42.016;23.098;2022-10-03T05:15:53;97090.69;;;10.67;100.00
7614;BME280;3848;42.016;23.098;2022-10-03T05:18:27;97088.97;;;10.71;100.00
7614;BME280;3848;42.016;23.098;2022-10-03T05:21:04;97085.47;;;10.81;100.00
7614;BME280;3848;42.016;23.098;2022-10-03T05:23:45;97093.78;;;10.97;100.00
7614;BME280;3848;42.016;23.098;2022-10-03T05:26:21;97095.31;;;11.13;100.00
7614;BME280;3848;42.016;23.098;2022-10-03T05:28:56;97099.44;;;11.25;100.00
7614;BME280;3848;42.016;23.098;2022-10-03T05:31:36;97068.13;;;11.18;100.00
7614;BME280;3848;42.016;23.098;2022-10-03T05:34:19;97097.50;;;11.44;100.00
7614;BME280;3848;42.016;23.098;2022-10-03T05:37:07;97101.66;;;11.52;100.00
7614;BME280;3848;42.016;23.098;2022-10-03T05:39:40;97097.41;;;11.51;100.00
7614;BME280;3848;42.016;23.098;2022-10-03T05:42:22;97065.50;;;11.27;100.00
7614;BME280;3848;42.016;23.098;2022-10-03T05:45:02;97103.41;;;11.47;100.00
7614;BME280;3848;42.016;23.098;2022-10-03T05:47:32;97098.34;;;11.44;100.00
7614;BME280;3848;42.016;23.098;2022-10-03T05:50:50;97097.47;;;11.48;100.00
7614;BME280;3848;42.016;23.098;2022-10-03T05:56:58;97097.25;;;11.64;100.00
7614;BME280;3848;42.016;23.098;2022-10-03T06:06:10;97103.25;;;11.59;100.00
7614;BME280;3848;42.016;23.098;2022-10-03T06:09:13;97092.34;;;11.50;100.00
7614;BME280;3848;42.016;23.098;2022-10-03T06:12:03;97086.44;;;11.49;100.00
7614;BME280;3848;42.016;23.098;2022-10-03T06:14:52;97094.06;;;11.48;100.00
7614;BME280;3848;42.016;23.098;2022-10-03T06:17:46;97106.88;;;11.40;100.00
7614;BME280;3848;42.016;23.098;2022-10-03T06:20:54;97107.06;;;11.22;100.00
7614;BME280;3848;42.016;23.098;2022-10-03T06:23:36;97095.31;;;11.13;100.00
7614;BME280;3848;42.016;23.098;2022-10-03T06:26:33;97105.44;;;11.18;100.00
7614;BME280;3848;42.016;23.098;2022-10-03T06:32:46;97109.69;;;11.16;100.00
7614;BME280;3848;42.016;23.098;2022-10-03T06:38:42;97100.47;;;11.09;100.00
7614;BME280;3848;42.016;23.098;2022-10-03T06:42:00;97100.59;;;10.95;100.00
7614;BME280;3848;42.016;23.098;2022-10-03T06:47:42;97100.56;;;10.98;100.00
7614;BME280;3848;42.016;23.098;2022-10-03T06:50:36;97087.84;;;10.96;100.00
7614;BME280;3848;42.016;23.098;2022-10-03T06:53:29;97070.09;;;10.93;100.00
7614;BME280;3848;42.016;23.098;2022-10-03T06:56:40;97038.81;;;10.88;100.00
7614;BME280;3848;42.016;23.098;2022-10-03T07:11:51;97101.06;;;11.30;100.00
7614;BME280;3848;42.016;23.098;2022-10-03T07:17:48;97119.38;;;11.58;100.00
7614;BME280;3848;42.016;23.098;2022-10-03T07:20:40;97104.78;;;11.73;100.00
7614;BME280;3848;42.016;23.098;2022-10-03T07:26:35;97108.84;;;11.89;100.00
7614;BME280;3848;42.016;23.098;2022-10-03T07:29:30;97118.75;;;12.07;100.00
7614;BME280;3848;42.016;23.098;2022-10-03T07:32:36;97115.53;;;11.96;100.00
7614;BME280;3848;42.016;23.098;2022-10-03T07:35:35;97115.38;;;12.05;100.00
7614;BME280;3848;42.016;23.098;2022-10-03T07:41:51;97113.91;;;11.92;100.00
7614;BME280;3848;42.016;23.098;2022-10-03T07:51:01;97101.03;;;12.01;100.00
7614;BME280;3848;42.016;23.098;2022-10-03T08:03:11;97059.50;;;11.96;100.00
7614;BME280;3848;42.016;23.098;2022-10-03T08:09:35;97092.03;;;12.36;100.00
7614;BME280;3848;42.016;23.098;2022-10-03T08:12:38;97086.88;;;12.39;100.00
7614;BME280;3848;42.016;23.098;2022-10-03T08:15:21;97090.00;;;12.56;100.00
7614;BME280;3848;42.016;23.098;2022-10-03T08:21:16;97095.63;;;12.75;100.00
7614;BME280;3848;42.016;23.098;2022-10-03T08:30:04;97103.38;;;13.61;100.00
7614;BME280;3848;42.016;23.098;2022-10-03T08:33:03;97088.56;;;13.77;100.00
7614;BME280;3848;42.016;23.098;2022-10-03T08:39:03;97111.50;;;13.80;100.00
7614;BME280;3848;42.016;23.098;2022-10-03T08:42:10;97106.31;;;13.83;100.00
7614;BME280;3848;42.016;23.098;2022-10-03T08:51:37;97129.78;;;14.00;100.00
7614;BME280;3848;42.016;23.098;2022-10-03T08:54:24;97142.25;;;14.14;100.00
7614;BME280;3848;42.016;23.098;2022-10-03T08:57:12;97160.03;;;14.20;100.00
7614;BME280;3848;42.016;23.098;2022-10-03T09:00:06;97151.22;;;14.32;100.00
7614;BME280;3848;42.016;23.098;2022-10-03T09:03:15;97145.06;;;14.41;100.00
7614;BME280;3848;42.016;23.098;2022-10-03T09:06:21;97155.63;;;14.25;100.00
7614;BME280;3848;42.016;23.098;2022-10-03T09:15:42;97119.78;;;14.28;100.00
7614;BME280;3848;42.016;23.098;2022-10-03T09:22:00;97096.16;;;14.19;100.00
7614;BME280;3848;42.016;23.098;2022-10-03T09:27:42;97123.78;;;14.40;100.00
7614;BME280;3848;42.016;23.098;2022-10-03T09:30:24;97084.31;;;14.16;100.00
7614;BME280;3848;42.016;23.098;2022-10-03T09:45:18;97114.56;;;15.96;100.00
7614;BME280;3848;42.016;23.098;2022-10-03T09:54:36;97115.81;;;16.12;100.00
7614;BME280;3848;42.016;23.098;2022-10-03T09:57:30;97112.03;;;16.78;100.00
7614;BME280;3848;42.016;23.098;2022-10-03T10:00:23;97116.44;;;17.24;100.00
7614;BME280;3848;42.016;23.098;2022-10-03T10:03:30;97115.59;;;17.24;100.00
7614;BME280;3848;42.016;23.098;2022-10-03T10:06:22;97111.31;;;17.73;100.00
7614;BME280;3848;42.016;23.098;2022-10-03T10:09:21;97106.66;;;17.82;100.00
7614;BME280;3848;42.016;23.098;2022-10-03T10:12:18;97116.38;;;17.51;100.00
7614;BME280;3848;42.016;23.098;2022-10-03T10:21:37;97097.78;;;17.19;100.00
7614;BME280;3848;42.016;23.098;2022-10-03T10:24:43;97089.03;;;17.48;100.00
7614;BME280;3848;42.016;23.098;2022-10-03T10:30:52;97082.44;;;17.18;100.00
7614;BME280;3848;42.016;23.098;2022-10-03T10:40:02;97072.41;;;17.35;100.00
7614;BME280;3848;42.016;23.098;2022-10-03T10:43:03;97046.53;;;17.40;100.00
7614;BME280;3848;42.016;23.098;2022-10-03T10:46:07;97055.00;;;17.88;100.00
7614;BME280;3848;42.016;23.098;2022-10-03T10:55:50;97054.91;;;18.77;100.00
7614;BME280;3848;42.016;23.098;2022-10-03T11:02:15;97048.78;;;18.80;100.00
7614;BME280;3848;42.016;23.098;2022-10-03T11:05:26;97071.75;;;19.05;100.00
7614;BME280;3848;42.016;23.098;2022-10-03T11:11:38;97048.97;;;18.96;100.00
7614;BME280;3848;42.016;23.098;2022-10-03T11:21:12;97035.53;;;19.28;100.00
7614;BME280;3848;42.016;23.098;2022-10-03T11:30:26;97015.00;;;19.45;100.00
7614;BME280;3848;42.016;23.098;2022-10-03T11:33:44;97025.47;;;19.61;100.00
7614;BME280;3848;42.016;23.098;2022-10-03T11:36:47;97028.00;;;19.63;100.00
7614;BME280;3848;42.016;23.098;2022-10-03T11:39:30;97033.66;;;19.50;100.00
7614;BME280;3848;42.016;23.098;2022-10-03T11:42:04;97034.38;;;19.54;100.00
7614;BME280;3848;42.016;23.098;2022-10-03T11:44:45;97036.47;;;19.65;100.00
7614;BME280;3848;42.016;23.098;2022-10-03T11:47:44;97016.13;;;19.40;100.00
7614;BME280;3848;42.016;23.098;2022-10-03T11:50:30;97016.13;;;19.40;98.73
7614;BME280;3848;42.016;23.098;2022-10-03T11:53:13;97009.00;;;19.45;100.00
7614;BME280;3848;42.016;23.098;2022-10-03T11:55:47;97027.69;;;19.69;99.37
7614;BME280;3848;42.016;23.098;2022-10-03T11:58:49;97034.38;;;19.54;94.67
7614;BME280;3848;42.016;23.098;2022-10-03T12:01:26;97030.81;;;19.38;97.81
7614;BME280;3848;42.016;23.098;2022-10-03T12:04:06;97035.41;;;19.50;95.68
7614;BME280;3848;42.016;23.098;2022-10-03T12:06:52;97034.72;;;19.46;99.12
7614;BME280;3848;42.016;23.098;2022-10-03T12:12:37;97041.22;;;19.35;100.00
7614;BME280;3848;42.016;23.098;2022-10-03T12:15:27;97049.63;;;19.40;96.48
7614;BME280;3848;42.016;23.098;2022-10-03T12:18:06;97037.47;;;19.23;91.74
7614;BME280;3848;42.016;23.098;2022-10-03T12:20:57;97052.31;;;18.98;94.73
7614;BME280;3848;42.016;23.098;2022-10-03T12:23:37;97052.50;;;18.93;96.19
7614;BME280;3848;42.016;23.098;2022-10-03T12:26:15;97041.63;;;18.86;93.19
7614;BME280;3848;42.016;23.098;2022-10-03T12:28:47;96945.03;;;18.17;90.69
7614;BME280;3848;42.016;23.098;2022-10-03T12:31:28;97055.91;;;18.73;95.16
7614;BME280;3848;42.016;23.098;2022-10-03T12:34:01;97063.91;;;18.67;98.62
7614;BME280;3848;42.016;23.098;2022-10-03T12:36:41;97058.69;;;18.69;90.21
7614;BME280;3848;42.016;23.098;2022-10-03T12:39:23;97060.91;;;18.56;89.53
7614;BME280;3848;42.016;23.098;2022-10-03T12:42:05;97042.56;;;18.43;89.01
7614;BME280;3848;42.016;23.098;2022-10-03T12:44:47;97049.31;;;18.46;91.60
7614;BME280;3848;42.016;23.098;2022-10-03T12:47:42;97036.31;;;18.49;92.22
7614;BME280;3848;42.016;23.098;2022-10-03T12:50:31;97070.44;;;18.54;95.71
7614;BME280;3848;42.016;23.098;2022-10-03T12:53:19;97091.53;;;18.62;92.23
7614;BME280;3848;42.016;23.098;2022-10-03T12:56:03;97100.22;;;18.59;85.68
7614;BME280;3848;42.016;23.098;2022-10-03T12:58:44;97100.66;;;18.49;82.58
7614;BME280;3848;42.016;23.098;2022-10-03T13:01:21;97102.56;;;18.44;83.54
7614;BME280;3848;42.016;23.098;2022-10-03T13:03:54;97093.25;;;18.41;88.17
7614;BME280;3848;42.016;23.098;2022-10-03T13:09:43;97098.06;;;18.49;82.75
7614;BME280;3848;42.016;23.098;2022-10-03T13:12:20;97098.03;;;18.28;84.89
7614;BME280;3848;42.016;23.098;2022-10-03T13:21:17;97121.09;;;18.08;98.87
7614;BME280;3848;42.016;23.098;2022-10-03T13:23:53;97118.13;;;17.97;100.00
7614;BME280;3848;42.016;23.098;2022-10-03T13:26:31;97097.50;;;17.98;100.00
7614;BME280;3848;42.016;23.098;2022-10-03T13:29:19;97099.78;;;17.83;100.00
7614;BME280;3848;42.016;23.098;2022-10-03T13:32:09;97087.47;;;17.44;100.00
7614;BME280;3848;42.016;23.098;2022-10-03T13:34:53;97009.28;;;17.04;100.00
7614;BME280;3848;42.016;23.098;2022-10-03T13:37:29;97102.84;;;17.71;100.00
7614;BME280;3848;42.016;23.098;2022-10-03T13:40:13;97099.66;;;17.62;100.00
7614;BME280;3848;42.016;23.098;2022-10-03T13:42:46;97098.09;;;17.58;100.00
7614;BME280;3848;42.016;23.098;2022-10-03T13:45:19;97106.34;;;17.66;100.00
7614;BME280;3848;42.016;23.098;2022-10-03T13:50:37;97100.09;;;17.75;100.00
7614;BME280;3848;42.016;23.098;2022-10-03T13:53:10;97100.22;;;17.94;100.00
7614;BME280;3848;42.016;23.098;2022-10-03T13:55:45;97096.78;;;18.17;100.00
7614;BME280;3848;42.016;23.098;2022-10-03T13:58:27;97101.03;;;18.40;100.00
7614;BME280;3848;42.016;23.098;2022-10-03T14:01:23;97077.13;;;18.58;100.00
7614;BME280;3848;42.016;23.098;2022-10-03T14:06:58;97042.66;;;18.82;100.00
7614;BME280;3848;42.016;23.098;2022-10-03T14:10:07;97037.88;;;18.94;99.54
7614;BME280;3848;42.016;23.098;2022-10-03T14:12:57;97089.09;;;19.40;100.00
7614;BME280;3848;42.016;23.098;2022-10-03T14:15:50;97062.06;;;19.30;91.16
7614;BME280;3848;42.016;23.098;2022-10-03T14:18:58;97001.72;;;18.97;95.43
7614;BME280;3848;42.016;23.098;2022-10-03T14:21:40;97082.63;;;19.50;83.00
7614;BME280;3848;42.016;23.098;2022-10-03T14:24:22;97077.75;;;19.44;77.95
7614;BME280;3848;42.016;23.098;2022-10-03T14:27:20;97065.91;;;19.40;77.63
7614;BME280;3848;42.016;23.098;2022-10-03T14:29:59;97071.00;;;19.42;72.49
7614;BME280;3848;42.016;23.098;2022-10-03T14:32:37;97081.94;;;19.47;72.95
7614;BME280;3848;42.016;23.098;2022-10-03T14:35:14;97060.53;;;19.26;77.94
7614;BME280;3848;42.016;23.098;2022-10-03T14:37:51;97087.50;;;19.38;74.04
7614;BME280;3848;42.016;23.098;2022-10-03T14:40:32;97083.16;;;19.19;63.00
7614;BME280;3848;42.016;23.098;2022-10-03T14:43:12;97072.41;;;18.89;65.64
7614;BME280;3848;42.016;23.098;2022-10-03T14:45:48;97083.09;;;18.80;61.37
7614;BME280;3848;42.016;23.098;2022-10-03T14:48:19;97091.72;;;18.79;61.47
7614;BME280;3848;42.016;23.098;2022-10-03T14:50:50;97086.88;;;18.72;61.34
7614;BME280;3848;42.016;23.098;2022-10-03T14:53:21;97084.06;;;18.56;61.29
7614;BME280;3848;42.016;23.098;2022-10-03T14:55:55;97082.50;;;18.52;61.38
7614;BME280;3848;42.016;23.098;2022-10-03T14:58:26;97078.44;;;18.46;62.08
7614;BME280;3848;42.016;23.098;2022-10-03T15:01:02;97076.31;;;18.36;62.38
7614;BME280;3848;42.016;23.098;2022-10-03T15:03:35;97078.53;;;18.23;60.54
7614;BME280;3848;42.016;23.098;2022-10-03T15:06:31;97082.91;;;18.21;61.49
7614;BME280;3848;42.016;23.098;2022-10-03T15:08:59;97085.03;;;18.10;62.23
7614;BME280;3848;42.016;23.098;2022-10-03T15:11:29;97086.13;;;18.04;60.72
7614;BME280;3848;42.016;23.098;2022-10-03T15:14:00;97085.47;;;17.99;64.38
7614;BME280;3848;42.016;23.098;2022-10-03T15:16:30;97084.03;;;17.92;61.37
7614;BME280;3848;42.016;23.098;2022-10-03T15:19:04;97090.22;;;17.86;61.25
7614;BME280;3848;42.016;23.098;2022-10-03T15:21:34;97044.13;;;17.58;64.59
7614;BME280;3848;42.016;23.098;2022-10-03T15:24:03;97081.47;;;17.68;66.31
7614;BME280;3848;42.016;23.098;2022-10-03T15:26:34;97105.41;;;17.71;63.30
7614;BME280;3848;42.016;23.098;2022-10-03T15:29:03;97102.03;;;17.68;63.18
7614;BME280;3848;42.016;23.098;2022-10-03T15:31:35;97099.78;;;17.59;66.81
7614;BME280;3848;42.016;23.098;2022-10-03T15:34:05;97101.78;;;17.51;68.27
7614;BME280;3848;42.016;23.098;2022-10-03T15:36:40;97118.88;;;17.52;66.57
7614;BME280;3848;42.016;23.098;2022-10-03T15:39:17;97111.97;;;17.54;65.99
7614;BME280;3848;42.016;23.098;2022-10-03T15:41:52;97118.19;;;17.47;68.51
7614;BME280;3848;42.016;23.098;2022-10-03T15:44:23;97128.75;;;17.40;69.48
7614;BME280;3848;42.016;23.098;2022-10-03T15:46:58;97122.22;;;17.31;72.99
7614;BME280;3848;42.016;23.098;2022-10-03T15:49:34;97130.06;;;17.26;71.47
7614;BME280;3848;42.016;23.098;2022-10-03T15:52:12;97132.84;;;17.20;72.63
7614;BME280;3848;42.016;23.098;2022-10-03T15:54:45;97149.19;;;17.18;74.68
7614;BME280;3848;42.016;23.098;2022-10-03T15:57:17;97146.13;;;17.08;75.63
7614;BME280;3848;42.016;23.098;2022-10-03T15:59:50;97151.03;;;17.14;78.27
7614;BME280;3848;42.016;23.098;2022-10-03T16:02:20;97161.41;;;17.11;79.11
7614;BME280;3848;42.016;23.098;2022-10-03T16:04:54;97164.94;;;17.07;80.59
7614;BME280;3848;42.016;23.098;2022-10-03T16:07:28;97167.50;;;17.09;79.12
7614;BME280;3848;42.016;23.098;2022-10-03T16:10:09;97174.31;;;17.10;84.37
7614;BME280;3848;42.016;23.098;2022-10-03T16:12:55;97171.06;;;17.03;78.41
7614;BME280;3848;42.016;23.098;2022-10-03T16:15:28;97181.66;;;16.94;84.44
7614;BME280;3848;42.016;23.098;2022-10-03T16:18:03;97182.03;;;16.82;79.25
7614;BME280;3848;42.016;23.098;2022-10-03T16:20:36;97189.13;;;16.75;79.35
7614;BME280;3848;42.016;23.098;2022-10-03T16:23:12;97185.97;;;16.67;81.96
7614;BME280;3848;42.016;23.098;2022-10-03T16:25:46;97186.97;;;16.60;81.14
7614;BME280;3848;42.016;23.098;2022-10-03T16:28:17;97184.72;;;16.51;84.92
7614;BME280;3848;42.016;23.098;2022-10-03T16:30:52;97195.03;;;16.49;85.55
7614;BME280;3848;42.016;23.098;2022-10-03T16:33:25;97188.38;;;16.42;81.62
7614;BME280;3848;42.016;23.098;2022-10-03T16:35:57;97200.47;;;16.38;86.32
7614;BME280;3848;42.016;23.098;2022-10-03T16:38:28;97196.41;;;16.31;89.13
7614;BME280;3848;42.016;23.098;2022-10-03T16:40:58;97201.59;;;16.30;87.42
7614;BME280;3848;42.016;23.098;2022-10-03T16:43:30;97203.38;;;16.28;87.89
7614;BME280;3848;42.016;23.098;2022-10-03T16:45:59;97200.91;;;16.23;90.99
7614;BME280;3848;42.016;23.098;2022-10-03T16:48:28;97202.63;;;16.24;91.67
7614;BME280;3848;42.016;23.098;2022-10-03T16:51:18;97200.97;;;16.22;91.05
7614;BME280;3848;42.016;23.098;2022-10-03T16:53:47;97209.63;;;16.17;91.18
7614;BME280;3848;42.016;23.098;2022-10-03T16:56:18;97205.47;;;16.13;95.16
7614;BME280;3848;42.016;23.098;2022-10-03T16:58:51;97214.28;;;16.05;96.57
7614;BME280;3848;42.016;23.098;2022-10-03T17:01:27;97213.56;;;16.00;95.07
7614;BME280;3848;42.016;23.098;2022-10-03T17:06:47;97210.44;;;15.90;95.02
7614;BME280;3848;42.016;23.098;2022-10-03T17:09:21;97211.41;;;15.86;96.52
7614;BME280;3848;42.016;23.098;2022-10-03T17:11:52;97217.50;;;15.80;96.87
7614;BME280;3848;42.016;23.098;2022-10-03T17:14:21;97217.50;;;15.80;97.75
7614;BME280;3848;42.016;23.098;2022-10-03T17:16:53;97227.00;;;15.77;97.77
7614;BME280;3848;42.016;23.098;2022-10-03T17:19:32;97233.06;;;15.74;99.56
7614;BME280;3848;42.016;23.098;2022-10-03T17:22:06;97226.25;;;15.73;94.20
7614;BME280;3848;42.016;23.098;2022-10-03T17:24:43;97224.00;;;15.61;100.00
7614;BME280;3848;42.016;23.098;2022-10-03T17:27:18;97228.28;;;15.62;98.52
7614;BME280;3848;42.016;23.098;2022-10-03T17:29:50;97227.50;;;15.59;100.00
7614;BME280;3848;42.016;23.098;2022-10-03T17:32:23;97203.16;;;15.41;98.02
7614;BME280;3848;42.016;23.098;2022-10-03T17:34:58;97227.72;;;15.49;100.00
7614;BME280;3848;42.016;23.098;2022-10-03T17:38:01;97235.44;;;15.48;98.65
7614;BME280;3848;42.016;23.098;2022-10-03T17:40:48;97232.38;;;15.34;99.42
7614;BME280;3848;42.016;23.098;2022-10-03T17:43:20;97221.44;;;15.29;98.21
7614;BME280;3848;42.016;23.098;2022-10-03T17:46:01;97219.88;;;15.23;100.00
7614;BME280;3848;42.016;23.098;2022-10-03T17:48:35;97237.66;;;15.28;100.00
7614;BME280;3848;42.016;23.098;2022-10-03T17:51:27;97239.44;;;15.25;100.00
7614;BME280;3848;42.016;23.098;2022-10-03T17:53:58;97233.50;;;15.23;100.00
7614;BME280;3848;42.016;23.098;2022-10-03T17:56:27;97240.44;;;15.18;100.00
7614;BME280;3848;42.016;23.098;2022-10-03T17:59:00;97240.44;;;15.18;100.00
7614;BME280;3848;42.016;23.098;2022-10-03T18:01:33;97243.91;;;15.16;100.00
7614;BME280;3848;42.016;23.098;2022-10-03T18:04:02;97251.63;;;15.14;100.00
7614;BME280;3848;42.016;23.098;2022-10-03T18:06:41;97246.50;;;15.14;97.32